createdAt,value
2022-08-22T00:00:22.000Z,91.99
2022-08-22T00:01:22.000Z,92.19
2022-08-22T00:02:22.000Z,92.40
2022-08-22T00:03:22.000Z,92.40
2022-08-22T00:04:22.000Z,92.40
2022-08-22T00:05:22.000Z,92.49
2022-08-22T00:06:22.000Z,92.70
2022-08-22T00:07:22.000Z,92.60
2022-08-22T00:08:22.000Z,92.90
2022-08-22T00:09:22.000Z,92.70
2022-08-22T00:10:22.000Z,92.60
2022-08-22T00:11:22.000Z,92.60
2022-08-22T00:12:22.000Z,92.60
2022-08-22T00:13:22.000Z,92.13
2022-08-22T00:14:22.000Z,92.13
2022-08-22T00:15:22.000Z,92.24
2022-08-22T00:16:22.000Z,92.13
2022-08-22T00:17:22.000Z,92.33
2022-08-22T00:18:22.000Z,92.13
2022-08-22T00:19:22.000Z,92.44
2022-08-22T00:20:22.000Z,92.44
2022-08-22T00:21:22.000Z,92.84
2022-08-22T00:22:22.000Z,93.15
2022-08-22T00:23:22.000Z,92.58
2022-08-22T00:24:22.000Z,92.84
2022-08-22T00:25:22.000Z,92.79
2022-08-22T00:26:22.000Z,93.09
2022-08-22T00:27:22.000Z,93.49
2022-08-22T00:28:22.000Z,93.80
2022-08-22T00:29:22.000Z,93.90
2022-08-22T00:30:22.000Z,94.41
2022-08-22T00:31:22.000Z,94.71
2022-08-22T00:32:21.000Z,94.71
2022-08-22T00:33:21.000Z,94.41
2022-08-22T00:34:21.000Z,94.31
2022-08-22T00:35:21.000Z,94.10
2022-08-22T00:36:21.000Z,94.31
2022-08-22T00:37:21.000Z,94.61
2022-08-22T00:38:21.000Z,94.61
2022-08-22T00:39:21.000Z,94.41
2022-08-22T00:40:21.000Z,94.71
2022-08-22T00:41:21.000Z,94.21
2022-08-22T00:42:21.000Z,94.00
2022-08-22T00:43:21.000Z,94.31
2022-08-22T00:44:21.000Z,94.31
2022-08-22T00:45:21.000Z,94.71
2022-08-22T00:46:21.000Z,95.22
2022-08-22T00:47:21.000Z,95.53
2022-08-22T00:48:21.000Z,95.73
2022-08-22T00:49:21.000Z,95.83
2022-08-22T00:50:21.000Z,95.73
2022-08-22T00:51:21.000Z,95.63
2022-08-22T00:52:21.000Z,95.63
2022-08-22T00:53:21.000Z,95.32
2022-08-22T00:54:21.000Z,95.32
2022-08-22T00:55:21.000Z,95.42
2022-08-22T00:56:21.000Z,95.53
2022-08-22T00:57:21.000Z,95.73
2022-08-22T00:58:21.000Z,95.63
2022-08-22T00:59:21.000Z,95.73
2022-08-22T01:00:21.000Z,95.32
2022-08-22T01:01:21.000Z,95.22
2022-08-22T01:02:21.000Z,95.12
2022-08-22T01:03:21.000Z,94.92
2022-08-22T01:04:21.000Z,94.82
2022-08-22T01:05:21.000Z,94.86
2022-08-22T01:06:21.000Z,95.26
2022-08-22T01:07:21.000Z,95.17
2022-08-22T01:08:21.000Z,95.37
2022-08-22T01:09:21.000Z,95.37
2022-08-22T01:10:21.000Z,95.57
2022-08-22T01:11:21.000Z,95.47
2022-08-22T01:12:21.000Z,95.37
2022-08-22T01:13:21.000Z,95.37
2022-08-22T01:14:21.000Z,95.26
2022-08-22T01:15:21.000Z,95.47
2022-08-22T01:16:21.000Z,95.37
2022-08-22T01:17:21.000Z,95.57
2022-08-22T01:18:21.000Z,95.78
2022-08-22T01:19:21.000Z,95.67
2022-08-22T01:20:21.000Z,95.98
2022-08-22T01:21:21.000Z,96.18
2022-08-22T01:22:21.000Z,96.18
2022-08-22T01:23:21.000Z,95.98
2022-08-22T01:24:21.000Z,96.08
2022-08-22T01:25:21.000Z,95.98
2022-08-22T01:26:21.000Z,96.12
2022-08-22T01:27:21.000Z,96.28
2022-08-22T01:28:21.000Z,96.89
2022-08-22T01:29:21.000Z,97.40
2022-08-22T01:30:21.000Z,97.09
2022-08-22T01:31:21.000Z,96.89
2022-08-22T01:32:21.000Z,96.69
2022-08-22T01:33:21.000Z,96.69
2022-08-22T01:34:21.000Z,96.59
2022-08-22T01:35:21.000Z,96.53
2022-08-22T01:36:21.000Z,96.83
2022-08-22T01:37:21.000Z,96.63
2022-08-22T01:38:21.000Z,96.63
2022-08-22T01:38:21.000Z,96.63
2022-08-22T01:39:21.000Z,96.53
2022-08-22T01:39:21.000Z,96.53
2022-08-22T01:40:21.000Z,96.94
2022-08-22T01:40:21.000Z,96.94
2022-08-22T01:41:21.000Z,97.34
2022-08-22T01:41:21.000Z,97.34
2022-08-22T01:42:21.000Z,97.75
2022-08-22T01:42:21.000Z,97.75
2022-08-22T01:43:21.000Z,98.05
2022-08-22T01:44:21.000Z,97.85
2022-08-22T01:45:20.000Z,97.96
2022-08-22T01:46:20.000Z,97.96
2022-08-22T01:47:20.000Z,97.96
2022-08-22T01:48:20.000Z,98.26
2022-08-22T01:49:20.000Z,98.16
2022-08-22T01:50:20.000Z,98.26
2022-08-22T01:51:20.000Z,98.05
2022-08-22T01:52:20.000Z,97.96
2022-08-22T01:53:20.000Z,98.05
2022-08-22T01:54:20.000Z,98.05
2022-08-22T01:55:20.000Z,97.65
2022-08-22T01:56:20.000Z,97.55
2022-08-22T01:57:20.000Z,97.55
2022-08-22T01:58:20.000Z,97.44
2022-08-22T01:59:20.000Z,97.44
2022-08-22T02:00:20.000Z,97.24
2022-08-22T02:01:20.000Z,97.14
2022-08-22T02:02:20.000Z,97.44
2022-08-22T02:03:20.000Z,97.65
2022-08-22T02:04:20.000Z,97.75
2022-08-22T02:05:20.000Z,97.80
2022-08-22T02:06:20.000Z,97.60
2022-08-22T02:07:20.000Z,97.49
2022-08-22T02:08:20.000Z,97.49
2022-08-22T02:09:20.000Z,97.29
2022-08-22T02:10:20.000Z,97.60
2022-08-22T02:11:20.000Z,97.29
2022-08-22T02:12:20.000Z,97.19
2022-08-22T02:13:20.000Z,97.19
2022-08-22T02:14:20.000Z,97.39
2022-08-22T02:15:20.000Z,97.29
2022-08-22T02:16:20.000Z,97.29
2022-08-22T02:17:20.000Z,97.60
2022-08-22T02:18:20.000Z,97.49
2022-08-22T02:19:20.000Z,97.60
2022-08-22T02:20:20.000Z,97.80
2022-08-22T02:21:20.000Z,98.00
2022-08-22T02:22:20.000Z,98.00
2022-08-22T02:23:20.000Z,98.00
2022-08-22T02:24:20.000Z,98.30
2022-08-22T02:25:20.000Z,99.93
2022-08-22T02:26:20.000Z,99.99
2022-08-22T02:27:20.000Z,99.99
2022-08-22T02:28:20.000Z,99.99
2022-08-22T02:29:20.000Z,99.99
2022-08-22T02:30:20.000Z,99.99
2022-08-22T02:31:20.000Z,99.99
2022-08-22T02:32:20.000Z,99.99
2022-08-22T02:33:20.000Z,99.99
2022-08-22T02:34:20.000Z,99.99
2022-08-22T02:35:20.000Z,99.99
2022-08-22T02:36:20.000Z,99.99
2022-08-22T02:37:20.000Z,99.99
2022-08-22T02:38:20.000Z,99.99
2022-08-22T02:39:20.000Z,99.99
2022-08-22T02:40:20.000Z,99.99
2022-08-22T02:41:20.000Z,99.99
2022-08-22T02:42:20.000Z,99.99
2022-08-22T02:43:20.000Z,99.99
2022-08-22T02:44:20.000Z,99.99
2022-08-22T02:45:20.000Z,99.99
2022-08-22T02:46:20.000Z,99.99
2022-08-22T02:47:20.000Z,99.99
2022-08-22T02:48:20.000Z,99.99
2022-08-22T02:49:20.000Z,99.99
2022-08-22T02:50:20.000Z,99.99
2022-08-22T02:51:20.000Z,99.99
2022-08-22T02:52:20.000Z,99.99
2022-08-22T02:53:20.000Z,99.99
2022-08-22T02:54:20.000Z,99.99
2022-08-22T02:55:20.000Z,99.99
2022-08-22T02:56:20.000Z,99.99
2022-08-22T02:57:20.000Z,99.99
2022-08-22T02:58:19.000Z,99.78
2022-08-22T02:59:19.000Z,99.63
2022-08-22T03:00:19.000Z,99.42
2022-08-22T03:01:19.000Z,99.63
2022-08-22T03:02:19.000Z,99.83
2022-08-22T03:03:19.000Z,99.83
2022-08-22T03:04:19.000Z,99.83
2022-08-22T03:05:19.000Z,99.83
2022-08-22T03:06:19.000Z,99.73
2022-08-22T03:07:19.000Z,99.93
2022-08-22T03:08:19.000Z,99.88
2022-08-22T03:09:19.000Z,99.88
2022-08-22T03:10:19.000Z,99.77
2022-08-22T03:11:19.000Z,99.99
2022-08-22T03:12:19.000Z,99.99
2022-08-22T03:13:19.000Z,99.99
2022-08-22T03:14:19.000Z,99.99
2022-08-22T03:15:19.000Z,99.99
2022-08-22T03:16:19.000Z,99.99
2022-08-22T03:17:19.000Z,99.99
2022-08-22T03:18:19.000Z,99.99
2022-08-22T03:19:19.000Z,99.99
2022-08-22T03:20:19.000Z,99.99
2022-08-22T03:21:19.000Z,99.99
2022-08-22T03:22:19.000Z,99.99
2022-08-22T03:23:19.000Z,99.99
2022-08-22T03:24:19.000Z,99.99
2022-08-22T03:25:19.000Z,99.99
2022-08-22T03:26:19.000Z,99.99
2022-08-22T03:27:19.000Z,99.99
2022-08-22T03:28:19.000Z,99.99
2022-08-22T03:29:19.000Z,99.99
2022-08-22T03:30:19.000Z,99.99
2022-08-22T03:31:19.000Z,99.99
2022-08-22T03:32:19.000Z,99.99
2022-08-22T03:33:19.000Z,99.99
2022-08-22T03:34:19.000Z,99.99
2022-08-22T03:35:19.000Z,99.99
2022-08-22T03:36:19.000Z,99.99
2022-08-22T03:37:19.000Z,99.99
2022-08-22T03:38:19.000Z,99.99
2022-08-22T03:39:19.000Z,99.99
2022-08-22T03:40:19.000Z,99.99
2022-08-22T03:41:19.000Z,99.99
2022-08-22T03:42:19.000Z,99.99
2022-08-22T03:43:19.000Z,99.99
2022-08-22T03:44:19.000Z,99.99
2022-08-22T03:45:19.000Z,99.99
2022-08-22T03:46:19.000Z,99.99
2022-08-22T03:47:19.000Z,99.99
2022-08-22T03:48:19.000Z,99.99
2022-08-22T03:49:19.000Z,99.99
2022-08-22T03:50:19.000Z,99.99
2022-08-22T03:51:19.000Z,99.99
2022-08-22T03:52:19.000Z,99.99
2022-08-22T03:53:19.000Z,99.99
2022-08-22T03:54:19.000Z,99.99
2022-08-22T03:55:19.000Z,99.99
2022-08-22T03:56:19.000Z,99.99
2022-08-22T03:57:19.000Z,99.99
2022-08-22T03:58:19.000Z,99.99
2022-08-22T03:59:19.000Z,99.99
2022-08-22T04:00:19.000Z,99.99
2022-08-22T04:01:19.000Z,99.99
2022-08-22T04:02:19.000Z,99.99
2022-08-22T04:03:19.000Z,99.99
2022-08-22T04:04:19.000Z,99.99
2022-08-22T04:05:19.000Z,99.99
2022-08-22T04:06:19.000Z,99.99
2022-08-22T04:07:19.000Z,99.99
2022-08-22T04:08:19.000Z,99.99
2022-08-22T04:09:19.000Z,99.99
2022-08-22T04:10:19.000Z,99.99
2022-08-22T04:11:18.000Z,99.99
2022-08-22T04:12:18.000Z,99.99
2022-08-22T04:13:18.000Z,99.99
2022-08-22T04:14:18.000Z,99.99
2022-08-22T04:15:18.000Z,99.99
2022-08-22T04:16:18.000Z,99.99
2022-08-22T04:17:18.000Z,99.99
2022-08-22T04:18:18.000Z,99.99
2022-08-22T04:19:18.000Z,99.99
2022-08-22T04:20:18.000Z,99.99
2022-08-22T04:21:18.000Z,99.99
2022-08-22T04:22:18.000Z,99.99
2022-08-22T04:23:18.000Z,99.99
2022-08-22T04:24:18.000Z,99.99
2022-08-22T04:25:18.000Z,99.99
2022-08-22T04:26:18.000Z,99.99
2022-08-22T04:27:18.000Z,99.99
2022-08-22T04:28:18.000Z,99.99
2022-08-22T04:29:18.000Z,99.99
2022-08-22T04:30:18.000Z,99.99
2022-08-22T04:31:18.000Z,99.99
2022-08-22T04:32:18.000Z,99.99
2022-08-22T04:33:18.000Z,99.99
2022-08-22T04:34:18.000Z,99.99
2022-08-22T04:35:18.000Z,99.99
2022-08-22T04:36:18.000Z,99.99
2022-08-22T04:37:18.000Z,99.99
2022-08-22T04:38:18.000Z,99.99
2022-08-22T04:39:18.000Z,99.99
2022-08-22T04:40:18.000Z,99.99
2022-08-22T04:41:18.000Z,99.99
2022-08-22T04:42:18.000Z,99.99
2022-08-22T04:43:18.000Z,99.99
2022-08-22T04:44:18.000Z,99.99
2022-08-22T04:45:18.000Z,99.99
2022-08-22T04:46:18.000Z,99.99
2022-08-22T04:47:18.000Z,99.99
2022-08-22T04:48:18.000Z,99.99
2022-08-22T04:49:18.000Z,99.99
2022-08-22T04:50:18.000Z,99.99
2022-08-22T04:51:18.000Z,99.99
2022-08-22T04:52:18.000Z,99.99
2022-08-22T04:53:18.000Z,99.99
2022-08-22T04:54:18.000Z,99.99
2022-08-22T04:55:18.000Z,99.99
2022-08-22T04:56:18.000Z,99.99
2022-08-22T04:57:18.000Z,99.99
2022-08-22T04:58:18.000Z,99.99
2022-08-22T04:59:18.000Z,99.99
2022-08-22T05:00:18.000Z,99.99
2022-08-22T05:01:18.000Z,99.99
2022-08-22T05:02:18.000Z,99.99
2022-08-22T05:03:18.000Z,99.99
2022-08-22T05:04:18.000Z,99.99
2022-08-22T05:05:18.000Z,99.99
2022-08-22T05:06:18.000Z,99.99
2022-08-22T05:07:18.000Z,99.99
2022-08-22T05:08:18.000Z,99.99
2022-08-22T05:09:18.000Z,99.99
2022-08-22T05:10:18.000Z,99.99
2022-08-22T05:11:18.000Z,99.99
2022-08-22T05:12:18.000Z,99.99
2022-08-22T05:13:18.000Z,99.99
2022-08-22T05:14:18.000Z,99.99
2022-08-22T05:15:18.000Z,99.99
2022-08-22T05:16:18.000Z,99.99
2022-08-22T05:17:18.000Z,99.99
2022-08-22T05:18:18.000Z,99.99
2022-08-22T05:19:18.000Z,99.99
2022-08-22T05:20:18.000Z,99.99
2022-08-22T05:21:18.000Z,99.99
2022-08-22T05:22:18.000Z,99.99
2022-08-22T05:23:18.000Z,99.99
2022-08-22T05:24:18.000Z,99.99
2022-08-22T05:25:17.000Z,99.99
2022-08-22T05:26:17.000Z,99.99
2022-08-22T05:27:17.000Z,99.99
2022-08-22T05:28:17.000Z,99.99
2022-08-22T05:29:17.000Z,99.99
2022-08-22T05:30:17.000Z,99.99
2022-08-22T05:31:17.000Z,99.99
2022-08-22T05:32:17.000Z,99.99
2022-08-22T05:33:17.000Z,99.99
2022-08-22T05:34:17.000Z,99.99
2022-08-22T05:35:17.000Z,99.99
2022-08-22T05:36:17.000Z,99.99
2022-08-22T05:37:17.000Z,99.99
2022-08-22T05:38:17.000Z,99.99
2022-08-22T05:39:17.000Z,99.99
2022-08-22T05:40:17.000Z,99.99
2022-08-22T05:41:17.000Z,99.99
2022-08-22T05:42:17.000Z,99.99
2022-08-22T05:43:17.000Z,99.99
2022-08-22T05:44:17.000Z,99.99
2022-08-22T05:45:17.000Z,99.99
2022-08-22T05:46:17.000Z,99.99
2022-08-22T05:47:17.000Z,99.99
2022-08-22T05:48:17.000Z,99.99
2022-08-22T05:49:17.000Z,99.99
2022-08-22T05:50:17.000Z,99.99
2022-08-22T05:51:17.000Z,99.99
2022-08-22T05:52:17.000Z,99.99
2022-08-22T05:53:17.000Z,99.99
2022-08-22T05:54:17.000Z,99.99
2022-08-22T05:55:17.000Z,99.99
2022-08-22T05:56:17.000Z,99.99
2022-08-22T05:57:17.000Z,99.99
2022-08-22T05:58:17.000Z,99.99
2022-08-22T05:59:17.000Z,99.99
2022-08-22T06:00:17.000Z,99.99
2022-08-22T06:01:17.000Z,99.99
2022-08-22T06:02:17.000Z,99.80
2022-08-22T06:03:17.000Z,99.70
2022-08-22T06:04:17.000Z,99.80
2022-08-22T06:05:17.000Z,99.80
2022-08-22T06:06:17.000Z,99.80
2022-08-22T06:07:17.000Z,99.76
2022-08-22T06:08:17.000Z,99.66
2022-08-22T06:09:17.000Z,99.66
2022-08-22T06:10:17.000Z,99.46
2022-08-22T06:11:17.000Z,99.21
2022-08-22T06:12:17.000Z,99.21
2022-08-22T06:13:17.000Z,99.01
2022-08-22T06:14:17.000Z,98.90
2022-08-22T06:15:17.000Z,98.85
2022-08-22T06:16:17.000Z,98.55
2022-08-22T06:17:17.000Z,98.25
2022-08-22T06:18:17.000Z,97.94
2022-08-22T06:19:17.000Z,97.90
2022-08-22T06:20:17.000Z,97.69
2022-08-22T06:21:17.000Z,97.60
2022-08-22T06:22:17.000Z,97.39
2022-08-22T06:23:17.000Z,97.14
2022-08-22T06:24:17.000Z,97.05
2022-08-22T06:25:17.000Z,96.84
2022-08-22T06:26:17.000Z,96.44
2022-08-22T06:27:17.000Z,95.73
2022-08-22T06:28:17.000Z,95.78
2022-08-22T06:29:17.000Z,95.28
2022-08-22T06:30:17.000Z,95.18
2022-08-22T06:31:17.000Z,94.87
2022-08-22T06:32:17.000Z,94.87
2022-08-22T06:33:17.000Z,94.07
2022-08-22T06:34:17.000Z,94.12
2022-08-22T06:35:17.000Z,93.72
2022-08-22T06:36:17.000Z,93.32
2022-08-22T06:37:17.000Z,93.21
2022-08-22T06:38:16.000Z,92.61
2022-08-22T06:39:16.000Z,92.61
2022-08-22T06:40:16.000Z,92.46
2022-08-22T06:41:16.000Z,92.26
2022-08-22T06:42:16.000Z,92.26
2022-08-22T06:43:16.000Z,92.36
2022-08-22T06:44:16.000Z,92.16
2022-08-22T06:45:16.000Z,92.26
2022-08-22T06:46:16.000Z,92.06
2022-08-22T06:47:16.000Z,91.71
2022-08-22T06:48:16.000Z,91.61
2022-08-22T06:49:16.000Z,91.61
2022-08-22T06:50:16.000Z,91.82
2022-08-22T06:51:16.000Z,91.51
2022-08-22T06:52:16.000Z,91.41
2022-08-22T06:53:16.000Z,91.27
2022-08-22T06:54:16.000Z,91.06
2022-08-22T06:55:16.000Z,90.77
2022-08-22T06:56:16.000Z,90.46
2022-08-22T06:57:16.000Z,90.66
2022-08-22T06:58:16.000Z,90.66
2022-08-22T06:59:16.000Z,90.66
2022-08-22T07:00:16.000Z,90.62
2022-08-22T07:01:16.000Z,90.82
2022-08-22T07:02:16.000Z,90.92
2022-08-22T07:03:16.000Z,90.82
2022-08-22T07:04:16.000Z,90.52
2022-08-22T07:05:16.000Z,90.37
2022-08-22T07:06:16.000Z,90.37
2022-08-22T07:07:16.000Z,89.87
2022-08-22T07:08:16.000Z,89.77
2022-08-22T07:09:16.000Z,90.13
2022-08-22T07:10:16.000Z,90.44
2022-08-22T07:11:16.000Z,89.32
2022-08-22T07:12:16.000Z,89.39
2022-08-22T07:13:16.000Z,89.28
2022-08-22T07:14:16.000Z,89.08
2022-08-22T07:15:16.000Z,88.54
2022-08-22T07:16:16.000Z,88.94
2022-08-22T07:17:16.000Z,89.04
2022-08-22T07:18:16.000Z,88.29
2022-08-22T07:19:16.000Z,87.49
2022-08-22T07:20:16.000Z,86.48
2022-08-22T07:21:16.000Z,83.33
2022-08-22T07:22:16.000Z,84.33
2022-08-22T07:23:16.000Z,82.12
2022-08-22T07:23:16.000Z,82.12
2022-08-22T07:24:16.000Z,80.27
2022-08-22T07:24:16.000Z,80.27
2022-08-22T07:25:16.000Z,81.38
2022-08-22T07:25:16.000Z,81.38
2022-08-22T07:26:16.000Z,81.18
2022-08-22T07:26:16.000Z,81.18
2022-08-22T07:27:16.000Z,81.07
2022-08-22T07:27:16.000Z,81.07
2022-08-22T07:28:16.000Z,81.44
2022-08-22T07:29:16.000Z,80.54
2022-08-22T07:30:16.000Z,79.73
2022-08-22T07:31:16.000Z,80.13
2022-08-22T07:32:16.000Z,79.49
2022-08-22T07:33:16.000Z,79.99
2022-08-22T07:34:16.000Z,78.66
2022-08-22T07:35:16.000Z,78.85
2022-08-22T07:36:16.000Z,79.16
2022-08-22T07:37:16.000Z,78.42
2022-08-22T07:38:16.000Z,78.22
2022-08-22T07:39:16.000Z,76.98
2022-08-22T07:40:16.000Z,77.48
2022-08-22T07:41:16.000Z,76.64
2022-08-22T07:42:16.000Z,74.84
2022-08-22T07:43:16.000Z,74.63
2022-08-22T07:44:16.000Z,74.54
2022-08-22T07:45:16.000Z,74.20
2022-08-22T07:46:16.000Z,73.80
2022-08-22T07:47:16.000Z,74.10
2022-08-22T07:48:16.000Z,73.60
2022-08-22T07:49:16.000Z,74.06
2022-08-22T07:50:16.000Z,73.26
2022-08-22T07:51:15.000Z,73.26
2022-08-22T07:52:15.000Z,73.56
2022-08-22T07:53:15.000Z,73.06
2022-08-22T07:54:15.000Z,73.46
2022-08-22T07:55:15.000Z,73.13
2022-08-22T07:56:15.000Z,73.83
2022-08-22T07:57:15.000Z,74.43
2022-08-22T07:58:15.000Z,73.22
2022-08-22T07:59:15.000Z,70.89
2022-08-22T08:00:15.000Z,71.52
2022-08-22T08:01:15.000Z,68.49
2022-08-22T08:02:15.000Z,66.27
2022-08-22T08:03:15.000Z,67.23
2022-08-22T08:04:15.000Z,66.90
2022-08-22T08:05:15.000Z,64.37
2022-08-22T08:06:15.000Z,62.85
2022-08-22T08:07:15.000Z,63.72
2022-08-22T08:08:15.000Z,61.69
2022-08-22T08:09:15.000Z,61.80
2022-08-22T08:10:15.000Z,62.40
2022-08-22T08:11:15.000Z,62.40
2022-08-22T08:12:15.000Z,62.63
2022-08-22T08:13:15.000Z,62.90
2022-08-22T08:14:15.000Z,59.99
2022-08-22T08:15:15.000Z,59.56
2022-08-22T08:16:15.000Z,59.27
2022-08-22T08:17:15.000Z,58.27
2022-08-22T08:18:15.000Z,57.87
2022-08-22T08:19:15.000Z,58.04
2022-08-22T08:20:15.000Z,57.15
2022-08-22T08:21:15.000Z,56.53
2022-08-22T08:22:15.000Z,56.73
2022-08-22T08:23:15.000Z,56.51
2022-08-22T08:24:15.000Z,53.43
2022-08-22T08:25:15.000Z,53.50
2022-08-22T08:26:15.000Z,53.43
2022-08-22T08:27:15.000Z,52.91
2022-08-22T08:28:15.000Z,51.92
2022-08-22T08:29:15.000Z,50.83
2022-08-22T08:30:15.000Z,51.52
2022-08-22T08:31:15.000Z,51.89
2022-08-22T08:32:15.000Z,50.71
2022-08-22T08:33:15.000Z,50.51
2022-08-22T08:34:15.000Z,50.60
2022-08-22T08:35:15.000Z,51.60
2022-08-22T08:36:15.000Z,50.31
2022-08-22T08:37:15.000Z,50.09
2022-08-22T08:38:15.000Z,50.68
2022-08-22T08:39:15.000Z,50.36
2022-08-22T08:40:15.000Z,51.23
2022-08-22T08:41:15.000Z,51.72
2022-08-22T08:42:15.000Z,50.73
2022-08-22T08:43:15.000Z,50.93
2022-08-22T08:44:15.000Z,49.44
2022-08-22T08:45:15.000Z,50.36
2022-08-22T08:46:15.000Z,51.57
2022-08-22T08:47:15.000Z,51.67
2022-08-22T08:48:15.000Z,50.56
2022-08-22T08:49:15.000Z,50.04
2022-08-22T08:50:15.000Z,50.61
2022-08-22T08:51:15.000Z,48.02
2022-08-22T08:52:15.000Z,47.05
2022-08-22T08:53:15.000Z,47.84
2022-08-22T08:54:15.000Z,47.74
2022-08-22T08:55:15.000Z,49.32
2022-08-22T08:56:15.000Z,49.82
2022-08-22T08:57:15.000Z,48.41
2022-08-22T08:58:15.000Z,47.89
2022-08-22T08:59:15.000Z,48.90
2022-08-22T09:00:15.000Z,50.78
2022-08-22T09:01:15.000Z,49.18
2022-08-22T09:02:15.000Z,49.48
2022-08-22T09:03:15.000Z,48.31
2022-08-22T09:04:15.000Z,47.25
2022-08-22T09:05:14.000Z,45.94
2022-08-22T09:06:14.000Z,46.63
2022-08-22T09:07:14.000Z,47.81
2022-08-22T09:08:14.000Z,48.21
2022-08-22T09:09:14.000Z,47.81
2022-08-22T09:10:14.000Z,47.22
2022-08-22T09:11:14.000Z,46.93
2022-08-22T09:12:14.000Z,47.91
2022-08-22T09:13:14.000Z,46.45
2022-08-22T09:14:14.000Z,48.38
2022-08-22T09:15:14.000Z,50.78
2022-08-22T09:16:14.000Z,50.01
2022-08-22T09:17:14.000Z,47.66
2022-08-22T09:18:14.000Z,50.56
2022-08-22T09:19:14.000Z,50.56
2022-08-22T09:20:14.000Z,50.98
2022-08-22T09:21:14.000Z,50.38
2022-08-22T09:22:14.000Z,51.37
2022-08-22T09:23:14.000Z,50.48
2022-08-22T09:23:14.000Z,50.48
2022-08-22T09:24:14.000Z,52.76
2022-08-22T09:24:14.000Z,52.76
2022-08-22T09:25:14.000Z,48.00
2022-08-22T09:25:14.000Z,48.00
2022-08-22T09:26:14.000Z,48.99
2022-08-22T09:26:14.000Z,48.99
2022-08-22T09:27:14.000Z,48.27
2022-08-22T09:27:14.000Z,48.27
2022-08-22T09:28:14.000Z,49.66
2022-08-22T09:29:14.000Z,50.88
2022-08-22T09:30:14.000Z,53.06
2022-08-22T09:31:14.000Z,52.26
2022-08-22T09:32:14.000Z,50.70
2022-08-22T09:33:14.000Z,52.00
2022-08-22T09:34:14.000Z,52.39
2022-08-22T09:35:14.000Z,50.68
2022-08-22T09:36:14.000Z,49.99
2022-08-22T09:37:14.000Z,51.07
2022-08-22T09:38:14.000Z,49.59
2022-08-22T09:39:14.000Z,50.98
2022-08-22T09:40:14.000Z,50.70
2022-08-22T09:41:14.000Z,50.60
2022-08-22T09:42:14.000Z,50.31
2022-08-22T09:43:14.000Z,50.01
2022-08-22T09:44:14.000Z,49.39
2022-08-22T09:45:14.000Z,50.18
2022-08-22T09:46:14.000Z,49.61
2022-08-22T09:47:14.000Z,50.90
2022-08-22T09:48:14.000Z,51.52
2022-08-22T09:49:14.000Z,50.93
2022-08-22T09:50:14.000Z,49.34
2022-08-22T09:51:14.000Z,50.75
2022-08-22T09:52:14.000Z,48.19
2022-08-22T09:53:14.000Z,49.61
2022-08-22T09:54:14.000Z,49.68
2022-08-22T09:55:14.000Z,50.78
2022-08-22T09:56:14.000Z,48.59
2022-08-22T09:57:14.000Z,49.98
2022-08-22T09:58:14.000Z,50.78
2022-08-22T09:59:14.000Z,48.89
2022-08-22T10:00:14.000Z,49.08
2022-08-22T10:01:14.000Z,48.39
2022-08-22T10:02:14.000Z,51.17
2022-08-22T10:03:14.000Z,50.35
2022-08-22T10:04:14.000Z,50.16
2022-08-22T10:05:14.000Z,49.24
2022-08-22T10:06:14.000Z,48.25
2022-08-22T10:07:14.000Z,50.43
2022-08-22T10:08:14.000Z,50.03
2022-08-22T10:09:14.000Z,49.63
2022-08-22T10:10:14.000Z,48.74
2022-08-22T10:11:14.000Z,49.54
2022-08-22T10:12:14.000Z,48.94
2022-08-22T10:13:14.000Z,48.72
2022-08-22T10:14:14.000Z,47.41
2022-08-22T10:15:14.000Z,48.69
2022-08-22T10:16:14.000Z,49.49
2022-08-22T10:17:14.000Z,49.99
2022-08-22T10:18:14.000Z,48.10
2022-08-22T10:19:13.000Z,48.90
2022-08-22T10:20:13.000Z,49.19
2022-08-22T10:21:13.000Z,48.77
2022-08-22T10:22:13.000Z,49.34
2022-08-22T10:23:13.000Z,47.75
2022-08-22T10:24:13.000Z,47.14
2022-08-22T10:25:13.000Z,47.61
2022-08-22T10:26:13.000Z,46.50
2022-08-22T10:27:13.000Z,46.70
2022-08-22T10:28:13.000Z,45.53
2022-08-22T10:29:13.000Z,46.92
2022-08-22T10:30:13.000Z,47.52
2022-08-22T10:31:13.000Z,47.53
2022-08-22T10:32:13.000Z,47.16
2022-08-22T10:33:13.000Z,46.77
2022-08-22T10:34:13.000Z,47.56
2022-08-22T10:35:13.000Z,48.94
2022-08-22T10:36:13.000Z,48.18
2022-08-22T10:37:13.000Z,50.68
2022-08-22T10:38:13.000Z,49.69
2022-08-22T10:38:13.000Z,49.69
2022-08-22T10:39:13.000Z,49.69
2022-08-22T10:39:13.000Z,49.69
2022-08-22T10:40:13.000Z,49.49
2022-08-22T10:40:13.000Z,49.49
2022-08-22T10:41:13.000Z,49.59
2022-08-22T10:41:13.000Z,49.59
2022-08-22T10:42:13.000Z,48.40
2022-08-22T10:42:13.000Z,48.40
2022-08-22T10:43:13.000Z,50.09
2022-08-22T10:44:13.000Z,48.60
2022-08-22T10:45:13.000Z,50.28
2022-08-22T10:46:13.000Z,48.50
2022-08-22T10:47:13.000Z,50.68
2022-08-22T10:48:13.000Z,50.68
2022-08-22T10:48:13.000Z,50.68
2022-08-22T10:49:13.000Z,50.51
2022-08-22T10:49:13.000Z,50.51
2022-08-22T10:50:13.000Z,49.91
2022-08-22T10:50:13.000Z,49.91
2022-08-22T10:51:13.000Z,49.93
2022-08-22T10:51:13.000Z,49.93
2022-08-22T10:52:13.000Z,50.70
2022-08-22T10:52:13.000Z,50.70
2022-08-22T10:53:13.000Z,50.01
2022-08-22T10:54:13.000Z,51.10
2022-08-22T10:55:13.000Z,51.30
2022-08-22T10:56:13.000Z,49.11
2022-08-22T10:57:13.000Z,49.54
2022-08-22T10:58:13.000Z,50.40
2022-08-22T10:59:13.000Z,52.29
2022-08-22T11:00:13.000Z,51.67
2022-08-22T11:01:13.000Z,50.76
2022-08-22T11:02:13.000Z,51.23
2022-08-22T11:03:13.000Z,49.84
2022-08-22T11:04:13.000Z,49.52
2022-08-22T11:05:13.000Z,48.82
2022-08-22T11:06:13.000Z,48.72
2022-08-22T11:07:13.000Z,49.12
2022-08-22T11:08:13.000Z,48.53
2022-08-22T11:09:13.000Z,48.82
2022-08-22T11:10:13.000Z,48.33
2022-08-22T11:11:13.000Z,48.23
2022-08-22T11:12:13.000Z,48.33
2022-08-22T11:13:13.000Z,48.33
2022-08-22T11:14:13.000Z,48.30
2022-08-22T11:15:13.000Z,47.52
2022-08-22T11:16:13.000Z,48.33
2022-08-22T11:17:13.000Z,48.43
2022-08-22T11:18:13.000Z,48.43
2022-08-22T11:19:13.000Z,50.13
2022-08-22T11:20:13.000Z,48.57
2022-08-22T11:21:13.000Z,49.74
2022-08-22T11:22:13.000Z,50.43
2022-08-22T11:23:13.000Z,49.54
2022-08-22T11:24:13.000Z,48.05
2022-08-22T11:25:13.000Z,49.34
2022-08-22T11:26:13.000Z,50.60
2022-08-22T11:27:13.000Z,47.34
2022-08-22T11:28:13.000Z,48.13
2022-08-22T11:28:13.000Z,48.13
2022-08-22T11:28:13.000Z,48.13
2022-08-22T11:29:13.000Z,48.60
2022-08-22T11:29:13.000Z,48.60
2022-08-22T11:29:13.000Z,48.60
2022-08-22T11:30:13.000Z,46.72
2022-08-22T11:30:13.000Z,46.72
2022-08-22T11:30:13.000Z,46.72
2022-08-22T11:31:13.000Z,47.69
2022-08-22T11:31:13.000Z,47.69
2022-08-22T11:31:13.000Z,47.69
2022-08-22T11:32:13.000Z,48.36
2022-08-22T11:32:13.000Z,48.36
2022-08-22T11:32:13.000Z,48.36
2022-08-22T11:33:12.000Z,47.47
2022-08-22T11:33:12.000Z,47.47
2022-08-22T11:34:12.000Z,46.45
2022-08-22T11:34:12.000Z,46.45
2022-08-22T11:35:12.000Z,45.25
2022-08-22T11:35:12.000Z,45.25
2022-08-22T11:36:12.000Z,45.35
2022-08-22T11:36:12.000Z,45.35
2022-08-22T11:37:12.000Z,44.61
2022-08-22T11:37:12.000Z,44.61
2022-08-22T11:38:12.000Z,43.92
2022-08-22T11:39:12.000Z,44.59
2022-08-22T11:40:12.000Z,43.90
2022-08-22T11:41:12.000Z,43.48
2022-08-22T11:42:12.000Z,43.68
2022-08-22T11:43:12.000Z,44.45
2022-08-22T11:44:12.000Z,44.65
2022-08-22T11:45:12.000Z,42.77
2022-08-22T11:46:12.000Z,44.06
2022-08-22T11:47:12.000Z,45.36
2022-08-22T11:48:12.000Z,45.46
2022-08-22T11:49:12.000Z,44.69
2022-08-22T11:50:12.000Z,44.22
2022-08-22T11:51:12.000Z,47.00
2022-08-22T11:52:12.000Z,45.92
2022-08-22T11:53:12.000Z,46.63
2022-08-22T11:54:12.000Z,47.84
2022-08-22T11:55:12.000Z,48.06
2022-08-22T11:56:12.000Z,48.06
2022-08-22T11:57:12.000Z,49.47
2022-08-22T11:58:12.000Z,47.89
2022-08-22T11:59:12.000Z,47.69
2022-08-22T12:00:12.000Z,47.09
2022-08-22T12:01:12.000Z,47.89
2022-08-22T12:02:12.000Z,46.84
2022-08-22T12:03:12.000Z,47.75
2022-08-22T12:04:12.000Z,48.97
2022-08-22T12:05:12.000Z,47.68
2022-08-22T12:06:12.000Z,50.46
2022-08-22T12:07:12.000Z,49.07
2022-08-22T12:08:12.000Z,48.87
2022-08-22T12:08:12.000Z,48.87
2022-08-22T12:09:12.000Z,50.56
2022-08-22T12:09:12.000Z,50.56
2022-08-22T12:10:12.000Z,49.07